sensor_id;sensor_type;location;lat;lon;timestamp;pressure;altitude;pressure_sealevel;temperature;humidity
78073;BME280;67281;48.770;11.440;2023-11-21T00:02:26;96712.56;;;14.67;56.09
78073;BME280;67281;48.770;11.440;2023-11-21T00:04:54;96721.28;;;14.67;56.31
78073;BME280;67281;48.770;11.440;2023-11-21T00:07:21;96714.22;;;14.68;56.65
78073;BME280;67281;48.770;11.440;2023-11-21T00:09:48;96701.19;;;14.66;56.76
78073;BME280;67281;48.770;11.440;2023-11-21T00:12:15;96712.41;;;14.68;56.16
78073;BME280;67281;48.770;11.440;2023-11-21T00:14:41;96714.22;;;14.68;56.19
78073;BME280;67281;48.770;11.440;2023-11-21T00:17:08;96707.41;;;14.65;56.21
78073;BME280;67281;48.770;11.440;2023-11-21T00:19:35;96712.56;;;14.67;56.30
78073;BME280;67281;48.770;11.440;2023-11-21T00:22:02;96713.53;;;14.66;57.04
78073;BME280;67281;48.770;11.440;2023-11-21T00:24:29;96711.19;;;14.63;56.31
78073;BME280;67281;48.770;11.440;2023-11-21T00:26:56;96721.19;;;14.59;56.74
78073;BME280;67281;48.770;11.440;2023-11-21T00:29:23;96715.78;;;14.61;56.79
78073;BME280;67281;48.770;11.440;2023-11-21T00:31:50;96711.31;;;14.61;56.21
78073;BME280;67281;48.770;11.440;2023-11-21T00:34:17;96715.47;;;14.64;56.01
78073;BME280;67281;48.770;11.440;2023-11-21T00:36:43;96711.19;;;14.63;56.21
78073;BME280;67281;48.770;11.440;2023-11-21T00:39:10;96715.47;;;14.64;56.33
78073;BME280;67281;48.770;11.440;2023-11-21T00:41:38;96707.72;;;14.62;56.07
78073;BME280;67281;48.770;11.440;2023-11-21T00:44:05;96704.94;;;14.64;56.36
78073;BME280;67281;48.770;11.440;2023-11-21T00:46:33;96703.97;;;14.65;56.21
78073;BME280;67281;48.770;11.440;2023-11-21T00:49:00;96708.53;;;14.63;56.05
78073;BME280;67281;48.770;11.440;2023-11-21T00:51:27;96713.13;;;14.61;56.30
78073;BME280;67281;48.770;11.440;2023-11-21T00:53:54;96712.31;;;14.60;56.04
78073;BME280;67281;48.770;11.440;2023-11-21T00:56:21;96716.47;;;14.63;56.81
78073;BME280;67281;48.770;11.440;2023-11-21T00:58:49;96713.97;;;14.61;56.60
78073;BME280;67281;48.770;11.440;2023-11-21T01:01:19;96712.31;;;14.60;56.54
78073;BME280;67281;48.770;11.440;2023-11-21T01:03:46;96714.25;;;14.58;56.16
78073;BME280;67281;48.770;11.440;2023-11-21T01:06:13;96712.44;;;14.59;56.43
78073;BME280;67281;48.770;11.440;2023-11-21T01:08:43;96709.13;;;14.57;56.78
78073;BME280;67281;48.770;11.440;2023-11-21T01:11:11;96710.63;;;14.59;56.29
78073;BME280;67281;48.770;11.440;2023-11-21T01:13:39;96705.50;;;14.58;56.74
78073;BME280;67281;48.770;11.440;2023-11-21T01:16:06;96708.84;;;14.60;56.22
78073;BME280;67281;48.770;11.440;2023-11-21T01:18:35;96704.41;;;14.60;56.37
78073;BME280;67281;48.770;11.440;2023-11-21T01:21:01;96699.13;;;14.60;56.23
78073;BME280;67281;48.770;11.440;2023-11-21T01:23:28;96696.63;;;14.59;56.52
78073;BME280;67281;48.770;11.440;2023-11-21T01:25:56;96697.59;;;14.58;56.24
78073;BME280;67281;48.770;11.440;2023-11-21T01:28:23;96692.47;;;14.56;55.94
78073;BME280;67281;48.770;11.440;2023-11-21T01:30:50;96694.28;;;14.56;56.38
78073;BME280;67281;48.770;11.440;2023-11-21T01:33:17;96699.25;;;14.59;56.06
78073;BME280;67281;48.770;11.440;2023-11-21T01:35:45;96691.50;;;14.57;56.58
78073;BME280;67281;48.770;11.440;2023-11-21T01:38:13;96688.19;;;14.55;56.16
78073;BME280;67281;48.770;11.440;2023-11-21T01:40:41;96692.47;;;14.56;56.48
78073;BME280;67281;48.770;11.440;2023-11-21T01:43:08;96692.47;;;14.56;55.99
78073;BME280;67281;48.770;11.440;2023-11-21T01:45:35;96686.22;;;14.57;56.26
78073;BME280;67281;48.770;11.440;2023-11-21T01:48:03;96689.00;;;14.56;55.95
78073;BME280;67281;48.770;11.440;2023-11-21T01:50:30;96681.25;;;14.54;56.15
78073;BME280;67281;48.770;11.440;2023-11-21T01:52:57;96690.66;;;14.57;56.40
78073;BME280;67281;48.770;11.440;2023-11-21T01:55:24;96681.25;;;14.54;55.94
78073;BME280;67281;48.770;11.440;2023-11-21T01:57:57;96691.66;;;14.56;56.58
78073;BME280;67281;48.770;11.440;2023-11-21T02:00:24;96686.53;;;14.54;56.20
78073;BME280;67281;48.770;11.440;2023-11-21T02:02:52;96692.63;;;14.55;56.01
78073;BME280;67281;48.770;11.440;2023-11-21T02:05:20;96685.84;;;14.52;56.17
78073;BME280;67281;48.770;11.440;2023-11-21T02:07:48;96684.84;;;14.53;56.30
78073;BME280;67281;48.770;11.440;2023-11-21T02:10:16;96685.00;;;14.52;56.34
78073;BME280;67281;48.770;11.440;2023-11-21T02:12:44;96684.84;;;14.53;55.99
78073;BME280;67281;48.770;11.440;2023-11-21T02:15:14;96684.72;;;14.55;56.52
78073;BME280;67281;48.770;11.440;2023-11-21T02:17:42;96676.13;;;14.53;56.51
78073;BME280;67281;48.770;11.440;2023-11-21T02:20:13;96681.38;;;14.53;56.62
78073;BME280;67281;48.770;11.440;2023-11-21T02:22:49;96674.91;;;14.47;55.93
78073;BME280;67281;48.770;11.440;2023-11-21T02:25:16;96678.91;;;14.51;56.12
78073;BME280;67281;48.770;11.440;2023-11-21T02:27:44;96680.16;;;14.47;56.42
78073;BME280;67281;48.770;11.440;2023-11-21T02:30:15;96682.66;;;14.49;56.55
78073;BME280;67281;48.770;11.440;2023-11-21T02:32:42;96680.03;;;14.49;56.05
78073;BME280;67281;48.770;11.440;2023-11-21T02:35:15;96679.88;;;14.50;56.54
78073;BME280;67281;48.770;11.440;2023-11-21T02:37:42;96680.03;;;14.49;56.48
78073;BME280;67281;48.770;11.440;2023-11-21T02:40:10;96674.59;;;14.50;56.40
78073;BME280;67281;48.770;11.440;2023-11-21T02:42:39;96668.66;;;14.48;56.37
78073;BME280;67281;48.770;11.440;2023-11-21T02:45:07;96673.09;;;14.48;56.50
78073;BME280;67281;48.770;11.440;2023-11-21T02:47:35;96680.84;;;14.49;56.51
78073;BME280;67281;48.770;11.440;2023-11-21T02:50:02;96681.81;;;14.48;56.64
78073;BME280;67281;48.770;11.440;2023-11-21T02:52:29;96681.00;;;14.48;56.33
78073;BME280;67281;48.770;11.440;2023-11-21T02:54:56;96682.66;;;14.49;56.21
78073;BME280;67281;48.770;11.440;2023-11-21T02:57:22;96675.03;;;14.45;56.25
78073;BME280;67281;48.770;11.440;2023-11-21T02:59:49;96667.97;;;14.46;56.08
78073;BME280;67281;48.770;11.440;2023-11-21T03:02:16;96671.44;;;14.46;56.13
78073;BME280;67281;48.770;11.440;2023-11-21T03:04:44;96667.41;;;14.42;56.14
78073;BME280;67281;48.770;11.440;2023-11-21T03:07:10;96669.91;;;14.44;56.48
78073;BME280;67281;48.770;11.440;2023-11-21T03:09:37;96669.91;;;14.44;56.38
78073;BME280;67281;48.770;11.440;2023-11-21T03:12:05;96673.66;;;14.41;56.00
78073;BME280;67281;48.770;11.440;2023-11-21T03:14:32;96676.31;;;14.41;56.08
78073;BME280;67281;48.770;11.440;2023-11-21T03:16:59;96670.06;;;14.42;56.04
78073;BME280;67281;48.770;11.440;2023-11-21T03:19:26;96675.44;;;14.41;55.88
78073;BME280;67281;48.770;11.440;2023-11-21T03:21:52;96668.66;;;14.38;56.17
78073;BME280;67281;48.770;11.440;2023-11-21T03:24:19;96672.69;;;14.42;56.31
78073;BME280;67281;48.770;11.440;2023-11-21T03:26:46;96668.41;;;14.41;55.87
78073;BME280;67281;48.770;11.440;2023-11-21T03:29:13;96672.13;;;14.39;56.32
78073;BME280;67281;48.770;11.440;2023-11-21T03:31:40;96669.34;;;14.40;56.63
78073;BME280;67281;48.770;11.440;2023-11-21T03:34:15;96667.53;;;14.41;56.32
78073;BME280;67281;48.770;11.440;2023-11-21T03:36:43;96669.22;;;14.42;56.08
78073;BME280;67281;48.770;11.440;2023-11-21T03:39:10;96667.69;;;14.39;56.22
78073;BME280;67281;48.770;11.440;2023-11-21T03:41:36;96662.41;;;14.39;56.26
78073;BME280;67281;48.770;11.440;2023-11-21T03:44:03;96655.47;;;14.38;56.16
78073;BME280;67281;48.770;11.440;2023-11-21T03:46:30;96663.69;;;14.35;56.48
78073;BME280;67281;48.770;11.440;2023-11-21T03:48:57;96669.78;;;14.36;56.29
78073;BME280;67281;48.770;11.440;2023-11-21T03:51:24;96666.72;;;14.40;56.37
78073;BME280;67281;48.770;11.440;2023-11-21T03:53:51;96670.31;;;14.39;56.21
78073;BME280;67281;48.770;11.440;2023-11-21T03:56:18;96661.72;;;14.37;56.39
78073;BME280;67281;48.770;11.440;2023-11-21T03:58:44;96667.97;;;14.36;56.12
78073;BME280;67281;48.770;11.440;2023-11-21T04:01:11;96661.72;;;14.37;56.05
78073;BME280;67281;48.770;11.440;2023-11-21T04:03:38;96666.31;;;14.35;56.55
78073;BME280;67281;48.770;11.440;2023-11-21T04:06:07;96657.72;;;14.33;56.35
78073;BME280;67281;48.770;11.440;2023-11-21T04:08:34;96655.38;;;14.30;56.35
78073;BME280;67281;48.770;11.440;2023-11-21T04:11:01;96663.13;;;14.32;56.34
78073;BME280;67281;48.770;11.440;2023-11-21T04:13:28;96658.00;;;14.30;56.08
78073;BME280;67281;48.770;11.440;2023-11-21T04:15:54;96664.94;;;14.31;56.06
78073;BME280;67281;48.770;11.440;2023-11-21T04:18:22;96671.88;;;14.32;56.03
78073;BME280;67281;48.770;11.440;2023-11-21T04:20:49;96676.44;;;14.30;56.33
78073;BME280;67281;48.770;11.440;2023-11-21T04:23:16;96679.09;;;14.30;56.15
78073;BME280;67281;48.770;11.440;2023-11-21T04:25:43;96680.22;;;14.28;56.49
78073;BME280;67281;48.770;11.440;2023-11-21T04:28:10;96684.50;;;14.29;56.63
78073;BME280;67281;48.770;11.440;2023-11-21T04:30:37;96680.22;;;14.28;56.07
78073;BME280;67281;48.770;11.440;2023-11-21T04:33:06;96685.47;;;14.28;56.12
78073;BME280;67281;48.770;11.440;2023-11-21T04:35:34;96670.09;;;14.23;56.07
78073;BME280;67281;48.770;11.440;2023-11-21T04:38:01;96671.06;;;14.22;56.47
78073;BME280;67281;48.770;11.440;2023-11-21T04:40:28;96674.25;;;14.26;56.05
78073;BME280;67281;48.770;11.440;2023-11-21T04:42:55;96679.53;;;14.26;55.83
78073;BME280;67281;48.770;11.440;2023-11-21T04:45:23;96678.53;;;14.27;56.52
78073;BME280;67281;48.770;11.440;2023-11-21T04:47:50;96675.22;;;14.25;55.75
78073;BME280;67281;48.770;11.440;2023-11-21T04:50:17;96681.63;;;14.22;56.18
78073;BME280;67281;48.770;11.440;2023-11-21T04:52:44;96679.53;;;14.26;55.87
78073;BME280;67281;48.770;11.440;2023-11-21T04:55:11;96683.28;;;14.23;56.33
78073;BME280;67281;48.770;11.440;2023-11-21T04:57:38;96684.09;;;14.24;55.85
78073;BME280;67281;48.770;11.440;2023-11-21T05:00:09;96682.31;;;14.24;55.85
78073;BME280;67281;48.770;11.440;2023-11-21T05:02:37;96678.97;;;14.22;56.41
78073;BME280;67281;48.770;11.440;2023-11-21T05:05:05;96686.88;;;14.22;56.52
78073;BME280;67281;48.770;11.440;2023-11-21T05:07:33;96694.78;;;14.22;56.38
78073;BME280;67281;48.770;11.440;2023-11-21T05:10:06;96694.09;;;14.20;56.46
78073;BME280;67281;48.770;11.440;2023-11-21T05:12:37;96693.13;;;14.21;55.93
78073;BME280;67281;48.770;11.440;2023-11-21T05:15:05;96688.69;;;14.22;55.68
78073;BME280;67281;48.770;11.440;2023-11-21T05:17:34;96690.63;;;14.20;55.83
78073;BME280;67281;48.770;11.440;2023-11-21T05:20:03;96691.59;;;14.19;55.83
78073;BME280;67281;48.770;11.440;2023-11-21T05:22:31;96690.78;;;14.18;56.08
78073;BME280;67281;48.770;11.440;2023-11-21T05:25:02;96688.44;;;14.15;56.06
78073;BME280;67281;48.770;11.440;2023-11-21T05:27:30;96679.69;;;14.14;56.36
78073;BME280;67281;48.770;11.440;2023-11-21T05:29:57;96683.00;;;14.17;55.99
78073;BME280;67281;48.770;11.440;2023-11-21T05:32:25;96687.16;;;14.19;56.29
78073;BME280;67281;48.770;11.440;2023-11-21T05:34:53;96694.94;;;14.21;55.75
78073;BME280;67281;48.770;11.440;2023-11-21T05:37:20;96690.78;;;14.18;55.76
78073;BME280;67281;48.770;11.440;2023-11-21T05:39:55;96698.00;;;14.16;55.77
78073;BME280;67281;48.770;11.440;2023-11-21T05:42:26;96686.91;;;14.12;55.93
78073;BME280;67281;48.770;11.440;2023-11-21T05:44:53;96696.88;;;14.19;56.29
78073;BME280;67281;48.770;11.440;2023-11-21T05:51:10;96699.66;;;14.17;55.72
78073;BME280;67281;48.770;11.440;2023-11-21T05:53:39;96704.09;;;14.17;55.64
78073;BME280;67281;48.770;11.440;2023-11-21T05:56:06;96700.78;;;14.14;55.81
78073;BME280;67281;48.770;11.440;2023-11-21T05:58:52;96692.19;;;14.12;56.13
78073;BME280;67281;48.770;11.440;2023-11-21T06:01:20;96703.56;;;14.13;55.86
78073;BME280;67281;48.770;11.440;2023-11-21T06:03:47;96708.81;;;14.13;55.77
78073;BME280;67281;48.770;11.440;2023-11-21T06:06:16;96706.63;;;14.08;56.41
78073;BME280;67281;48.770;11.440;2023-11-21T06:08:43;96713.81;;;14.16;56.06
78073;BME280;67281;48.770;11.440;2023-11-21T06:11:10;96704.38;;;14.13;56.08
78073;BME280;67281;48.770;11.440;2023-11-21T06:13:38;96691.94;;;14.06;55.82
78073;BME280;67281;48.770;11.440;2023-11-21T06:16:05;96718.53;;;14.12;56.25
78073;BME280;67281;48.770;11.440;2023-11-21T06:18:32;96715.88;;;14.12;56.00
78073;BME280;67281;48.770;11.440;2023-11-21T06:20:59;96715.75;;;14.14;56.46
78073;BME280;67281;48.770;11.440;2023-11-21T06:23:27;96714.22;;;14.11;55.76
78073;BME280;67281;48.770;11.440;2023-11-21T06:25:54;96722.00;;;14.13;55.66
78073;BME280;67281;48.770;11.440;2023-11-21T06:28:21;96720.50;;;14.10;56.23
78073;BME280;67281;48.770;11.440;2023-11-21T06:30:48;96723.13;;;14.10;56.19
78073;BME280;67281;48.770;11.440;2023-11-21T06:33:15;96719.50;;;14.11;55.77
78073;BME280;67281;48.770;11.440;2023-11-21T06:35:43;96728.22;;;14.12;55.98
78073;BME280;67281;48.770;11.440;2023-11-21T06:38:10;96728.41;;;14.10;56.46
78073;BME280;67281;48.770;11.440;2023-11-21T06:40:57;96724.94;;;14.10;55.91
78073;BME280;67281;48.770;11.440;2023-11-21T06:43:25;96730.88;;;14.12;55.76
78073;BME280;67281;48.770;11.440;2023-11-21T06:45:53;96723.56;;;14.06;55.75
78073;BME280;67281;48.770;11.440;2023-11-21T06:48:21;96743.38;;;14.10;55.99
78073;BME280;67281;48.770;11.440;2023-11-21T06:50:48;96739.91;;;14.09;56.24
78073;BME280;67281;48.770;11.440;2023-11-21T06:53:15;96743.53;;;14.08;55.80
78073;BME280;67281;48.770;11.440;2023-11-21T06:55:42;96743.38;;;14.10;55.85
78073;BME280;67281;48.770;11.440;2023-11-21T06:58:09;96744.34;;;14.09;56.09
78073;BME280;67281;48.770;11.440;2023-11-21T07:01:09;96753.59;;;14.13;55.96
78073;BME280;67281;48.770;11.440;2023-11-21T07:04:03;96749.47;;;14.10;56.01
78073;BME280;67281;48.770;11.440;2023-11-21T07:06:30;96741.03;;;14.07;56.06
78073;BME280;67281;48.770;11.440;2023-11-21T07:08:57;96749.63;;;14.09;56.32
78073;BME280;67281;48.770;11.440;2023-11-21T07:11:53;96752.94;;;14.11;55.75
78073;BME280;67281;48.770;11.440;2023-11-21T07:15:30;96752.94;;;14.11;56.18
78073;BME280;67281;48.770;11.440;2023-11-21T07:21:40;96754.75;;;14.10;55.71
78073;BME280;67281;48.770;11.440;2023-11-21T07:24:07;96758.22;;;14.11;55.68
78073;BME280;67281;48.770;11.440;2023-11-21T07:26:35;96762.47;;;14.12;55.94
78073;BME280;67281;48.770;11.440;2023-11-21T07:29:02;96753.59;;;14.13;56.01
78073;BME280;67281;48.770;11.440;2023-11-21T07:31:29;96770.78;;;14.17;55.79
78073;BME280;67281;48.770;11.440;2023-11-21T07:33:57;96762.34;;;14.13;55.66
78073;BME280;67281;48.770;11.440;2023-11-21T07:36:24;96773.03;;;14.12;55.73
78073;BME280;67281;48.770;11.440;2023-11-21T07:38:51;96772.06;;;14.13;56.15
78073;BME280;67281;48.770;11.440;2023-11-21T07:41:18;96778.97;;;14.14;56.54
78073;BME280;67281;48.770;11.440;2023-11-21T07:43:57;96792.00;;;14.15;55.99
78073;BME280;67281;48.770;11.440;2023-11-21T07:46:26;96791.78;;;14.09;55.89
78073;BME280;67281;48.770;11.440;2023-11-21T07:48:54;96789.97;;;14.09;56.08
78073;BME280;67281;48.770;11.440;2023-11-21T07:51:22;96788.81;;;14.12;55.82
78073;BME280;67281;48.770;11.440;2023-11-21T07:53:49;96787.03;;;14.12;56.09
78073;BME280;67281;48.770;11.440;2023-11-21T07:56:16;96793.81;;;14.15;56.03
78073;BME280;67281;48.770;11.440;2023-11-21T07:58:44;96786.06;;;14.13;56.30
78073;BME280;67281;48.770;11.440;2023-11-21T08:01:12;96786.38;;;14.10;55.83
78073;BME280;67281;48.770;11.440;2023-11-21T08:03:39;96794.41;;;14.09;56.06
78073;BME280;67281;48.770;11.440;2023-11-21T08:06:06;96799.53;;;14.10;55.73
78073;BME280;67281;48.770;11.440;2023-11-21T08:08:33;96789.97;;;14.09;56.23
78073;BME280;67281;48.770;11.440;2023-11-21T08:11:01;96795.25;;;14.09;56.10
78073;BME280;67281;48.770;11.440;2023-11-21T08:13:29;96798.53;;;14.11;55.96
78073;BME280;67281;48.770;11.440;2023-11-21T08:15:58;96799.53;;;14.10;56.48
78073;BME280;67281;48.770;11.440;2023-11-21T08:18:29;96799.69;;;14.09;55.70
78073;BME280;67281;48.770;11.440;2023-11-21T08:20:57;96801.16;;;14.11;55.98
78073;BME280;67281;48.770;11.440;2023-11-21T08:23:24;96797.88;;;14.09;56.33
78073;BME280;67281;48.770;11.440;2023-11-21T08:25:53;96790.81;;;14.10;55.67
78073;BME280;67281;48.770;11.440;2023-11-21T08:28:32;96792.28;;;14.12;56.02
78073;BME280;67281;48.770;11.440;2023-11-21T08:31:00;96778.59;;;14.09;56.14
78073;BME280;67281;48.770;11.440;2023-11-21T08:33:27;96785.22;;;14.13;56.01
78073;BME280;67281;48.770;11.440;2023-11-21T08:35:54;96792.28;;;14.12;55.73
78073;BME280;67281;48.770;11.440;2023-11-21T08:38:40;96792.00;;;14.15;55.74
78073;BME280;67281;48.770;11.440;2023-11-21T08:41:07;96791.47;;;14.12;55.83
78073;BME280;67281;48.770;11.440;2023-11-21T08:43:38;96785.81;;;14.07;56.12
78073;BME280;67281;48.770;11.440;2023-11-21T08:46:08;96788.81;;;14.12;56.06
78073;BME280;67281;48.770;11.440;2023-11-21T08:48:38;96800.88;;;14.14;56.33
78073;BME280;67281;48.770;11.440;2023-11-21T08:51:05;96803.53;;;14.14;55.59
78073;BME280;67281;48.770;11.440;2023-11-21T08:53:32;96803.81;;;14.11;56.00
78073;BME280;67281;48.770;11.440;2023-11-21T08:56:00;96800.66;;;14.08;56.00
78073;BME280;67281;48.770;11.440;2023-11-21T08:58:33;96802.44;;;14.07;55.60
78073;BME280;67281;48.770;11.440;2023-11-21T09:01:04;96807.59;;;14.09;56.12
78073;BME280;67281;48.770;11.440;2023-11-21T09:03:37;96796.34;;;14.07;56.26
78073;BME280;67281;48.770;11.440;2023-11-21T09:06:07;96804.94;;;14.09;56.01
78073;BME280;67281;48.770;11.440;2023-11-21T09:08:36;96816.19;;;14.11;56.07
78073;BME280;67281;48.770;11.440;2023-11-21T09:11:04;96811.19;;;14.08;55.93
78073;BME280;67281;48.770;11.440;2023-11-21T09:13:33;96825.72;;;14.12;55.88
78073;BME280;67281;48.770;11.440;2023-11-21T09:16:00;96831.69;;;14.14;55.94
78073;BME280;67281;48.770;11.440;2023-11-21T09:18:28;96825.34;;;14.07;56.35
78073;BME280;67281;48.770;11.440;2023-11-21T09:20:58;96825.56;;;14.13;56.27
78073;BME280;67281;48.770;11.440;2023-11-21T09:23:25;96840.97;;;14.18;55.26
78073;BME280;67281;48.770;11.440;2023-11-21T09:25:52;96835.00;;;14.16;55.93
78073;BME280;67281;48.770;11.440;2023-11-21T09:28:24;96840.97;;;14.18;56.28
78073;BME280;67281;48.770;11.440;2023-11-21T09:30:54;96840.97;;;14.18;56.31
78073;BME280;67281;48.770;11.440;2023-11-21T09:33:24;96841.38;;;14.23;55.61
78073;BME280;67281;48.770;11.440;2023-11-21T09:35:52;96835.28;;;14.23;55.88
78073;BME280;67281;48.770;11.440;2023-11-21T09:38:20;96843.47;;;14.20;55.71
78073;BME280;67281;48.770;11.440;2023-11-21T09:40:48;96845.81;;;14.23;56.03
78073;BME280;67281;48.770;11.440;2023-11-21T09:43:17;96832.38;;;14.16;55.99
78073;BME280;67281;48.770;11.440;2023-11-21T09:45:47;96844.72;;;14.15;56.26
78073;BME280;67281;48.770;11.440;2023-11-21T09:48:17;96845.97;;;14.21;55.93
78073;BME280;67281;48.770;11.440;2023-11-21T09:50:46;96845.81;;;14.13;56.06
78073;BME280;67281;48.770;11.440;2023-11-21T09:53:21;96840.69;;;14.11;55.85
78073;BME280;67281;48.770;11.440;2023-11-21T09:55:56;96852.34;;;14.19;55.57
78073;BME280;67281;48.770;11.440;2023-11-21T09:58:23;96854.84;;;14.20;56.10
78073;BME280;67281;48.770;11.440;2023-11-21T10:00:55;96839.59;;;14.14;55.80
78073;BME280;67281;48.770;11.440;2023-11-21T10:03:24;96840.41;;;14.24;55.40
78073;BME280;67281;48.770;11.440;2023-11-21T10:05:56;96847.75;;;14.30;55.93
78073;BME280;67281;48.770;11.440;2023-11-21T10:08:26;96831.66;;;14.24;55.95
78073;BME280;67281;48.770;11.440;2023-11-21T10:11:12;96837.09;;;14.22;55.95
78073;BME280;67281;48.770;11.440;2023-11-21T10:13:45;96834.44;;;14.22;56.11
78073;BME280;67281;48.770;11.440;2023-11-21T10:16:19;96831.81;;;14.22;55.82
78073;BME280;67281;48.770;11.440;2023-11-21T10:18:52;96835.00;;;14.26;56.25
78073;BME280;67281;48.770;11.440;2023-11-21T10:21:39;96841.09;;;14.26;55.79
78073;BME280;67281;48.770;11.440;2023-11-21T10:24:06;96838.88;;;14.22;56.60
78073;BME280;67281;48.770;11.440;2023-11-21T10:26:34;96843.03;;;14.24;56.29
78073;BME280;67281;48.770;11.440;2023-11-21T10:29:19;96838.59;;;14.15;56.31
78073;BME280;67281;48.770;11.440;2023-11-21T10:31:50;96838.06;;;14.21;56.15
78073;BME280;67281;48.770;11.440;2023-11-21T10:34:19;96841.38;;;14.23;56.21
78073;BME280;67281;48.770;11.440;2023-11-21T10:36:47;96838.75;;;14.23;56.49
78073;BME280;67281;48.770;11.440;2023-11-21T10:39:16;96845.94;;;14.31;55.65
78073;BME280;67281;48.770;11.440;2023-11-21T10:41:48;96846.78;;;14.31;55.97
78073;BME280;67281;48.770;11.440;2023-11-21T10:44:19;96850.81;;;14.35;56.50
78073;BME280;67281;48.770;11.440;2023-11-21T10:46:52;96846.91;;;14.30;56.05
78073;BME280;67281;48.770;11.440;2023-11-21T10:49:24;96843.47;;;14.29;56.28
78073;BME280;67281;48.770;11.440;2023-11-21T10:51:53;96855.25;;;14.35;55.88
78073;BME280;67281;48.770;11.440;2023-11-21T10:54:20;96856.22;;;14.34;56.12
78073;BME280;67281;48.770;11.440;2023-11-21T10:56:49;96848.59;;;14.31;56.14
78073;BME280;67281;48.770;11.440;2023-11-21T10:59:18;96850.25;;;14.32;56.62
78073;BME280;67281;48.770;11.440;2023-11-21T11:01:45;96856.34;;;14.32;56.35
78073;BME280;67281;48.770;11.440;2023-11-21T11:04:13;96850.81;;;14.35;56.17
78073;BME280;67281;48.770;11.440;2023-11-21T11:06:44;96854.13;;;14.37;56.35
78073;BME280;67281;48.770;11.440;2023-11-21T11:09:14;96852.47;;;14.36;56.01
78073;BME280;67281;48.770;11.440;2023-11-21T11:11:42;96849.69;;;14.38;56.56
78073;BME280;67281;48.770;11.440;2023-11-21T11:14:11;96840.94;;;14.37;56.08
78073;BME280;67281;48.770;11.440;2023-11-21T11:16:39;96850.38;;;14.40;56.02
78073;BME280;67281;48.770;11.440;2023-11-21T11:19:12;96849.81;;;14.36;56.19
78073;BME280;67281;48.770;11.440;2023-11-21T11:21:56;96846.09;;;14.39;56.38
78073;BME280;67281;48.770;11.440;2023-11-21T11:32:30;96836.81;;;14.44;56.30
78073;BME280;67281;48.770;11.440;2023-11-21T11:35:09;96826.09;;;14.36;56.38
78073;BME280;67281;48.770;11.440;2023-11-21T11:37:38;96838.03;;;14.40;56.46
78073;BME280;67281;48.770;11.440;2023-11-21T11:40:11;96834.56;;;14.40;56.25
78073;BME280;67281;48.770;11.440;2023-11-21T11:42:38;96844.16;;;14.51;56.20
78073;BME280;67281;48.770;11.440;2023-11-21T11:45:17;96838.19;;;14.49;55.66
78073;BME280;67281;48.770;11.440;2023-11-21T11:47:47;96836.09;;;14.52;55.92
78073;BME280;67281;48.770;11.440;2023-11-21T11:50:14;96833.75;;;14.49;55.74
78073;BME280;67281;48.770;11.440;2023-11-21T11:52:47;96833.59;;;14.51;56.04
78073;BME280;67281;48.770;11.440;2023-11-21T11:55:17;96843.03;;;14.53;56.09
78073;BME280;67281;48.770;11.440;2023-11-21T11:57:51;96841.38;;;14.52;55.99
78073;BME280;67281;48.770;11.440;2023-11-21T12:00:33;96843.88;;;14.54;56.27
78073;BME280;67281;48.770;11.440;2023-11-21T12:03:05;96842.06;;;14.54;56.35
78073;BME280;67281;48.770;11.440;2023-11-21T12:05:35;96839.44;;;14.54;56.00
78073;BME280;67281;48.770;11.440;2023-11-21T12:08:07;96839.56;;;14.53;56.12
78073;BME280;67281;48.770;11.440;2023-11-21T12:10:36;96837.19;;;14.59;56.26
78073;BME280;67281;48.770;11.440;2023-11-21T12:13:07;96834.16;;;14.54;55.75
78073;BME280;67281;48.770;11.440;2023-11-21T12:15:35;96842.19;;;14.62;55.87
78073;BME280;67281;48.770;11.440;2023-11-21T12:18:03;96837.75;;;14.63;55.90
78073;BME280;67281;48.770;11.440;2023-11-21T12:20:30;96844.41;;;14.67;55.39
78073;BME280;67281;48.770;11.440;2023-11-21T12:22:59;96841.91;;;14.65;55.92
78073;BME280;67281;48.770;11.440;2023-11-21T12:25:30;96838.44;;;14.65;55.82
78073;BME280;67281;48.770;11.440;2023-11-21T12:28:08;96836.50;;;14.67;55.93
78073;BME280;67281;48.770;11.440;2023-11-21T12:30:35;96845.22;;;14.67;56.12
78073;BME280;67281;48.770;11.440;2023-11-21T12:33:05;96839.41;;;14.64;56.29
78073;BME280;67281;48.770;11.440;2023-11-21T12:35:36;96849.53;;;14.68;56.17
78073;BME280;67281;48.770;11.440;2023-11-21T12:38:04;96853.97;;;14.68;55.81
78073;BME280;67281;48.770;11.440;2023-11-21T12:40:36;96855.63;;;14.69;56.02
78073;BME280;67281;48.770;11.440;2023-11-21T12:43:03;96846.22;;;14.66;56.05
78073;BME280;67281;48.770;11.440;2023-11-21T12:45:31;96855.63;;;14.69;55.77
78073;BME280;67281;48.770;11.440;2023-11-21T12:48:05;96854.94;;;14.67;56.04
78073;BME280;67281;48.770;11.440;2023-11-21T12:50:39;96854.94;;;14.67;55.91
78073;BME280;67281;48.770;11.440;2023-11-21T12:53:10;96855.50;;;14.70;56.27
78073;BME280;67281;48.770;11.440;2023-11-21T12:55:39;96856.75;;;14.66;56.15
78073;BME280;67281;48.770;11.440;2023-11-21T12:58:08;96861.75;;;14.69;55.69
78073;BME280;67281;48.770;11.440;2023-11-21T13:00:45;96847.47;;;14.62;56.25
78073;BME280;67281;48.770;11.440;2023-11-21T13:03:15;96857.44;;;14.68;56.39
78073;BME280;67281;48.770;11.440;2023-11-21T13:05:50;96854.25;;;14.65;56.02
78073;BME280;67281;48.770;11.440;2023-11-21T13:08:23;96868.00;;;14.68;56.24
78073;BME280;67281;48.770;11.440;2023-11-21T13:10:54;96850.09;;;14.62;55.73
78073;BME280;67281;48.770;11.440;2023-11-21T13:13:23;96862.84;;;14.67;56.34
78073;BME280;67281;48.770;11.440;2023-11-21T13:15:56;96863.41;;;14.70;55.97
78073;BME280;67281;48.770;11.440;2023-11-21T13:18:24;96863.41;;;14.70;56.33